Angola, Kansas
Current Conditions -  °F | °C
As of 7:52 AM on Friday 28 Nov 2014 (Local Time) from KCFV Reporting Station
Clear Clear  
Wind Chill:   Ceiling: Unl
Heat Index:   Visibility: 10mi
Dew Point: -2°   Wind: 16mph
Humidity: 63%   Direction: 190°S
Pressure: 30.07"   Gusts: NA
Location:  37.067°N, 95.5817°W
Report Text: KCFV 281352Z AUTO 19014KT 10SM CLR 04/M02 A3007 RMK AO2 SLP188 T00441022
Loading
Personal Weather Stations






























Interactive Weather Map New forecast layout! Learn more

10-Day Weather Forecast

Advertisements
Track Severe Weather on mobile